Time;durP1;ratioP1;P1;durP2;ratioP2;P2;SDS_P1;SDS_P2;PMS_P1;PMS_P2;Temp;Humidity;BMP_temperature;BMP_pressure;BME280_temperature;BME280_humidity;BME280_pressure;Samples;Min_cycle;Max_cycle;Signal;HPM_P1;HPM_P2
2022/05/22 00:01:15;;;;;;;9.40;4.57;;;11.10;99.90;;;;;;4854785;29;20044;-87
2022/05/22 00:03:42;;;;;;;11.48;5.00;;;11.10;99.90;;;;;;4854853;29;20127;-87
2022/05/22 00:06:08;;;;;;;8.77;4.80;;;11.10;99.90;;;;;;4902559;29;20039;-87
2022/05/22 00:08:34;;;;;;;12.10;5.25;;;11.10;99.90;;;;;;4901234;29;20040;-88
2022/05/22 00:10:59;;;;;;;13.88;5.05;;;11.00;99.90;;;;;;4869797;29;20072;-87
2022/05/22 00:13:25;;;;;;;13.00;4.88;;;11.00;99.90;;;;;;4873374;29;20460;-88
2022/05/22 00:18:35;;;;;;;12.20;5.20;;;11.00;99.90;;;;;;4906712;29;20138;-87
2022/05/22 00:21:01;;;;;;;13.70;5.82;;;10.90;99.90;;;;;;4920295;29;20468;-87
2022/05/22 00:23:28;;;;;;;11.60;5.78;;;10.90;99.90;;;;;;4884394;29;20048;-86
2022/05/22 00:25:56;;;;;;;9.30;4.50;;;10.90;99.90;;;;;;4885206;29;20044;-87
2022/05/22 00:28:22;;;;;;;9.73;4.88;;;10.80;99.90;;;;;;4866582;29;20073;-86
2022/05/22 00:30:48;;;;;;;9.77;4.70;;;10.80;99.90;;;;;;4867144;29;20052;-86
2022/05/22 00:33:13;;;;;;;11.27;5.22;;;10.80;99.90;;;;;;4883315;29;20528;-86
2022/05/22 00:35:40;;;;;;;10.85;4.82;;;11.00;99.90;;;;;;4901097;29;20131;-85
2022/05/22 00:38:06;;;;;;;13.32;5.47;;;10.80;99.90;;;;;;4885079;29;20504;-86
2022/05/22 00:40:32;;;;;;;15.20;5.72;;;10.80;99.90;;;;;;4901279;29;20072;-87
2022/05/22 00:42:58;;;;;;;9.98;5.78;;;10.80;99.90;;;;;;4881342;29;20114;-86
2022/05/22 00:45:24;;;;;;;12.40;5.80;;;10.70;99.90;;;;;;4885787;29;20036;-87
2022/05/22 00:47:53;;;;;;;15.13;5.53;;;10.70;99.90;;;;;;4885073;29;20047;-87
2022/05/22 00:50:21;;;;;;;10.48;5.30;;;10.70;99.90;;;;;;4885521;29;20055;-87
2022/05/22 00:52:53;;;;;;;11.80;5.50;;;10.70;99.90;;;;;;4880350;29;20032;-86
2022/05/22 00:55:28;;;;;;;13.80;5.35;;;10.70;99.90;;;;;;4882729;29;20053;-86
2022/05/22 00:57:58;;;;;;;14.25;5.68;;;10.70;99.90;;;;;;4881170;29;20048;-86
2022/05/22 01:00:33;;;;;;;14.93;6.65;;;10.80;99.90;;;;;;4906514;29;20090;-87
2022/05/22 01:05:48;;;;;;;13.55;6.45;;;10.70;99.90;;;;;;4901087;29;20104;-86
2022/05/22 01:08:14;;;;;;;13.02;5.90;;;10.60;99.90;;;;;;4869505;29;20587;-86
2022/05/22 01:10:45;;;;;;;11.02;5.68;;;10.60;99.90;;;;;;4900537;29;20071;-86
2022/05/22 01:13:17;;;;;;;17.88;6.40;;;10.60;99.90;;;;;;4881239;29;20045;-86
2022/05/22 01:15:43;;;;;;;12.27;5.85;;;10.60;99.90;;;;;;4894194;29;20051;-86
2022/05/22 01:18:10;;;;;;;11.43;5.65;;;10.50;99.90;;;;;;4889640;29;20568;-86
2022/05/22 01:20:37;;;;;;;10.00;5.55;;;10.40;99.90;;;;;;4867027;29;20484;-86
2022/05/22 01:23:03;;;;;;;11.68;5.60;;;10.40;99.90;;;;;;4880484;29;20064;-87
2022/05/22 01:25:29;;;;;;;16.40;5.85;;;10.40;99.90;;;;;;4885475;29;20048;-86
2022/05/22 01:27:55;;;;;;;14.85;5.57;;;10.40;99.90;;;;;;4897786;29;20040;-85
2022/05/22 01:30:27;;;;;;;10.45;4.43;;;10.40;99.90;;;;;;4874058;29;20044;-87
2022/05/22 01:32:53;;;;;;;7.10;4.53;;;10.40;99.90;;;;;;4885652;29;20075;-87
2022/05/22 01:35:22;;;;;;;11.00;4.93;;;10.30;99.90;;;;;;4866510;29;20489;-86
2022/05/22 01:37:49;;;;;;;8.23;4.88;;;10.30;99.90;;;;;;4879882;29;20087;-86
2022/05/22 01:40:16;;;;;;;9.55;4.93;;;10.20;99.90;;;;;;4881564;29;20485;-87
2022/05/22 01:42:42;;;;;;;8.52;4.88;;;10.40;99.90;;;;;;4882420;29;20053;-87
2022/05/22 01:45:09;;;;;;;9.02;5.47;;;10.20;99.90;;;;;;4855882;29;20048;-86
2022/05/22 01:47:38;;;;;;;10.13;4.88;;;10.20;99.90;;;;;;4867203;29;20037;-86
2022/05/22 01:50:05;;;;;;;9.65;5.10;;;10.20;99.90;;;;;;4888515;29;20384;-86
2022/05/22 01:52:31;;;;;;;10.02;5.30;;;10.10;99.90;;;;;;4873643;29;20107;-87
2022/05/22 01:54:56;;;;;;;13.68;6.28;;;10.10;99.90;;;;;;4876482;29;20045;-87
2022/05/22 01:57:22;;;;;;;10.57;5.38;;;10.10;99.90;;;;;;4888449;29;20039;-88
2022/05/22 01:59:48;;;;;;;8.75;5.10;;;10.10;99.90;;;;;;4903692;29;20040;-87
2022/05/22 02:02:14;;;;;;;11.48;5.22;;;10.10;99.90;;;;;;4903835;29;20036;-87
2022/05/22 02:04:39;;;;;;;13.25;5.80;;;10.10;99.90;;;;;;4888419;29;20404;-86
2022/05/22 02:09:50;;;;;;;13.05;6.57;;;10.00;99.90;;;;;;4903560;29;20059;-87
2022/05/22 02:12:15;;;;;;;8.98;5.30;;;10.10;99.90;;;;;;4902816;29;20048;-87
2022/05/22 02:14:41;;;;;;;12.98;6.13;;;9.90;99.90;;;;;;4904073;29;20474;-86
2022/05/22 02:17:07;;;;;;;10.60;5.72;;;10.00;99.90;;;;;;4904039;29;20412;-86
2022/05/22 02:19:33;;;;;;;9.35;5.47;;;9.90;99.90;;;;;;4888627;29;20075;-87
2022/05/22 02:21:58;;;;;;;7.78;5.03;;;9.80;99.90;;;;;;4903834;29;20048;-87
2022/05/22 02:24:24;;;;;;;8.38;5.28;;;9.90;99.90;;;;;;4903849;29;20072;-87
2022/05/22 02:26:50;;;;;;;7.30;4.63;;;9.90;99.90;;;;;;4865774;29;20049;-87
2022/05/22 02:29:16;;;;;;;8.93;4.70;;;9.90;99.90;;;;;;4898381;29;20048;-87
2022/05/22 02:31:42;;;;;;;11.93;5.38;;;9.80;99.90;;;;;;4902589;29;20535;-87
2022/05/22 02:34:08;;;;;;;8.27;5.57;;;9.80;99.90;;;;;;4904213;29;20048;-87
2022/05/22 02:36:34;;;;;;;9.38;5.75;;;9.80;99.90;;;;;;4904403;29;20493;-86
2022/05/22 02:38:59;;;;;;;8.32;5.13;;;9.70;99.90;;;;;;4887157;29;20040;-87
2022/05/22 02:41:25;;;;;;;11.02;5.53;;;9.80;99.90;;;;;;4903117;29;20068;-87
2022/05/22 02:43:52;;;;;;;10.23;4.88;;;9.80;99.90;;;;;;4904656;29;20062;-86
2022/05/22 02:46:19;;;;;;;13.25;4.90;;;9.70;99.90;;;;;;4887865;29;20044;-86
2022/05/22 02:48:46;;;;;;;10.05;5.13;;;9.80;99.90;;;;;;4889022;29;20032;-86
2022/05/22 02:51:18;;;;;;;9.60;5.38;;;9.70;99.90;;;;;;4873036;29;20040;-86
2022/05/22 02:53:44;;;;;;;10.10;5.03;;;9.60;99.90;;;;;;4887399;29;20062;-87
2022/05/22 02:56:12;;;;;;;7.82;4.93;;;9.60;99.90;;;;;;4871539;29;20618;-86
2022/05/22 02:58:38;;;;;;;9.45;5.35;;;9.60;99.90;;;;;;4902528;29;20511;-86
2022/05/22 03:01:04;;;;;;;7.43;5.30;;;9.50;99.90;;;;;;4902408;29;20044;-86
2022/05/22 03:03:31;;;;;;;9.32;5.13;;;9.60;99.90;;;;;;4884392;29;20044;-87
2022/05/22 03:08:41;;;;;;;7.65;5.20;;;9.50;99.90;;;;;;4884859;29;20044;-86
2022/05/22 03:11:07;;;;;;;7.20;5.40;;;9.50;99.90;;;;;;4879925;29;20530;-86
2022/05/22 03:13:33;;;;;;;8.23;5.22;;;9.40;99.90;;;;;;4883980;29;20401;-86
2022/05/22 03:15:59;;;;;;;7.78;4.88;;;9.80;99.90;;;;;;4853896;29;20041;-87
2022/05/22 03:18:25;;;;;;;7.88;4.55;;;9.60;99.90;;;;;;4902215;29;20047;-86
2022/05/22 03:20:50;;;;;;;7.75;5.10;;;9.40;99.90;;;;;;4868531;29;20123;-87
2022/05/22 03:23:17;;;;;;;10.15;5.45;;;9.40;99.90;;;;;;4884281;29;20100;-86
2022/05/22 03:25:44;;;;;;;9.07;5.10;;;9.30;99.90;;;;;;4885217;29;20068;-86
2022/05/22 03:28:10;;;;;;;9.10;5.60;;;9.20;99.90;;;;;;4884182;29;20044;-86
2022/05/22 03:30:36;;;;;;;8.82;5.22;;;9.20;99.90;;;;;;4886408;29;20158;-86
2022/05/22 03:33:02;;;;;;;7.72;5.28;;;9.10;99.90;;;;;;4880169;29;20041;-86
2022/05/22 03:35:28;;;;;;;6.80;5.07;;;9.10;99.90;;;;;;4887105;29;20457;-86
2022/05/22 03:37:54;;;;;;;10.02;5.13;;;9.10;99.90;;;;;;4886855;29;20048;-86
2022/05/22 03:40:20;;;;;;;9.05;4.80;;;9.10;99.90;;;;;;4902248;29;20055;-87
2022/05/22 03:42:45;;;;;;;7.82;4.70;;;9.10;99.90;;;;;;4898361;29;20044;-87
2022/05/22 03:45:12;;;;;;;5.80;4.07;;;9.10;99.90;;;;;;4887196;29;20056;-87
2022/05/22 03:47:40;;;;;;;5.85;4.10;;;9.10;99.90;;;;;;4903306;29;20040;-87
2022/05/22 03:50:08;;;;;;;4.82;4.30;;;9.00;99.90;;;;;;4888093;29;20441;-87
2022/05/22 03:52:36;;;;;;;5.30;3.97;;;9.00;99.90;;;;;;4888158;29;20043;-87
2022/05/22 03:55:04;;;;;;;8.00;4.53;;;9.10;99.90;;;;;;4903213;29;20036;-87
2022/05/22 03:57:29;;;;;;;6.22;4.82;;;9.00;99.90;;;;;;4902430;29;20040;-87
2022/05/22 03:59:55;;;;;;;6.82;4.75;;;9.30;99.90;;;;;;4881061;29;20060;-87
2022/05/22 04:02:20;;;;;;;7.57;4.63;;;8.90;99.90;;;;;;4884432;29;20040;-86
2022/05/22 04:04:46;;;;;;;7.07;4.68;;;9.00;99.90;;;;;;4887776;29;20099;-87
2022/05/22 04:07:12;;;;;;;7.15;4.60;;;8.90;99.90;;;;;;4891528;29;20045;-87
2022/05/22 04:09:37;;;;;;;8.90;5.18;;;9.10;99.90;;;;;;4851930;29;20448;-86
2022/05/22 04:12:08;;;;;;;6.30;4.35;;;9.00;99.90;;;;;;4892273;29;20044;-87
2022/05/22 04:14:34;;;;;;;6.18;4.60;;;9.00;99.90;;;;;;4907357;29;20103;-86
2022/05/22 04:17:03;;;;;;;8.10;4.30;;;9.00;99.90;;;;;;4923014;29;20040;-86
2022/05/22 04:19:29;;;;;;;5.97;4.55;;;9.00;99.90;;;;;;4908390;29;20039;-86
2022/05/22 04:21:55;;;;;;;6.50;4.55;;;9.10;99.90;;;;;;4889629;29;20033;-86
2022/05/22 04:27:07;;;;;;;9.30;5.78;;;9.10;99.90;;;;;;4891685;29;20059;-87
2022/05/22 04:29:34;;;;;;;7.00;5.22;;;9.10;99.90;;;;;;4887135;29;20067;-87
2022/05/22 04:32:00;;;;;;;7.57;5.30;;;9.20;99.90;;;;;;4903129;29;20044;-86
2022/05/22 04:34:27;;;;;;;10.23;5.65;;;9.40;99.90;;;;;;4885400;29;20043;-87
2022/05/22 04:36:52;;;;;;;8.27;5.32;;;9.20;99.90;;;;;;4884436;29;20044;-87
2022/05/22 04:39:18;;;;;;;9.45;5.20;;;9.60;99.90;;;;;;4878434;29;20043;-86
2022/05/22 04:41:44;;;;;;;7.88;5.35;;;9.20;99.90;;;;;;4901251;29;20096;-87
2022/05/22 04:44:10;;;;;;;8.95;4.95;;;9.20;99.90;;;;;;4867207;29;20052;-87
2022/05/22 04:46:35;;;;;;;9.95;5.78;;;9.30;99.90;;;;;;4883267;29;20052;-87
2022/05/22 04:49:02;;;;;;;11.50;5.63;;;9.40;99.90;;;;;;4896064;29;20040;-87
2022/05/22 04:51:28;;;;;;;8.95;5.07;;;9.40;99.90;;;;;;4900926;29;20344;-87
2022/05/22 04:53:54;;;;;;;11.15;5.50;;;9.40;99.90;;;;;;4882181;29;20040;-87
2022/05/22 04:56:20;;;;;;;12.63;6.63;;;9.50;99.90;;;;;;4867701;29;20111;-86
2022/05/22 04:58:47;;;;;;;9.48;5.68;;;9.50;99.90;;;;;;4872203;29;20044;-86
2022/05/22 05:01:14;;;;;;;9.10;5.75;;;9.60;99.90;;;;;;4892914;29;20572;-87
2022/05/22 05:03:39;;;;;;;11.75;6.82;;;9.60;99.90;;;;;;4868454;29;20051;-86
2022/05/22 05:06:05;;;;;;;12.27;6.85;;;9.70;99.90;;;;;;4857977;29;20040;-86
2022/05/22 05:08:31;;;;;;;11.82;6.63;;;10.20;99.90;;;;;;4866325;29;20044;-87
2022/05/22 05:10:58;;;;;;;15.52;7.18;;;9.70;99.90;;;;;;4871020;29;20049;-86
2022/05/22 05:13:25;;;;;;;13.30;6.93;;;9.80;99.90;;;;;;4885387;29;20044;-86
2022/05/22 05:15:58;;;;;;;10.38;6.63;;;9.80;99.90;;;;;;4885965;29;20050;-86
2022/05/22 05:18:24;;;;;;;13.60;6.13;;;10.40;99.90;;;;;;4884827;29;20405;-86
2022/05/22 05:20:50;;;;;;;11.95;7.10;;;9.90;99.90;;;;;;4881851;29;20040;-86
2022/05/22 05:23:16;;;;;;;11.57;6.45;;;9.90;99.90;;;;;;4893753;29;20044;-87
2022/05/22 05:25:41;;;;;;;15.15;7.13;;;10.00;99.90;;;;;;4904378;29;20053;-87
2022/05/22 05:28:07;;;;;;;11.55;6.65;;;10.10;99.90;;;;;;4887721;29;20095;-87
2022/05/22 05:30:33;;;;;;;11.88;7.07;;;10.20;99.90;;;;;;4873449;29;20047;-87
2022/05/22 05:32:58;;;;;;;13.20;6.72;;;10.20;99.90;;;;;;4886283;29;20063;-87
2022/05/22 05:35:24;;;;;;;10.38;6.35;;;11.10;99.90;;;;;;4873011;29;20131;-86
2022/05/22 05:37:51;;;;;;;12.35;6.80;;;10.40;99.90;;;;;;4888428;29;20472;-86
2022/05/22 05:40:17;;;;;;;13.77;6.35;;;10.40;99.90;;;;;;4904049;29;20560;-87
2022/05/22 05:42:43;;;;;;;10.50;6.07;;;10.50;99.90;;;;;;4904505;29;20063;-87
2022/05/22 05:45:11;;;;;;;15.13;6.32;;;10.50;99.90;;;;;;4888883;29;20044;-86
2022/05/22 05:47:37;;;;;;;14.00;6.50;;;10.60;99.90;;;;;;4889290;29;20040;-86
2022/05/22 05:50:05;;;;;;;12.32;6.07;;;10.70;99.90;;;;;;4889775;29;20606;-86
2022/05/22 05:52:31;;;;;;;11.65;6.40;;;10.80;99.90;;;;;;4889704;29;20133;-87
2022/05/22 05:54:57;;;;;;;9.55;6.10;;;10.80;99.90;;;;;;4887676;29;20044;-86
2022/05/22 05:57:22;;;;;;;17.10;6.82;;;10.90;99.90;;;;;;4899003;29;20072;-86
2022/05/22 05:59:51;;;;;;;11.50;6.40;;;11.00;99.90;;;;;;4860062;29;20131;-87
2022/05/22 06:02:17;;;;;;;10.90;5.97;;;11.10;99.90;;;;;;4907740;29;20052;-86
2022/05/22 06:04:43;;;;;;;12.35;6.15;;;11.20;99.90;;;;;;4903833;29;20044;-86
2022/05/22 06:07:09;;;;;;;14.13;6.40;;;11.30;99.90;;;;;;4887860;29;20063;-87
2022/05/22 06:09:36;;;;;;;9.95;6.22;;;11.40;99.90;;;;;;4889407;29;20055;-87
2022/05/22 06:12:02;;;;;;;9.88;5.72;;;11.30;99.90;;;;;;4885410;29;20055;-87
2022/05/22 06:14:29;;;;;;;13.93;6.93;;;11.60;99.90;;;;;;4876906;29;20037;-85
2022/05/22 06:16:55;;;;;;;11.70;6.80;;;11.70;99.90;;;;;;4869497;29;20044;-86
2022/05/22 06:19:53;;;;;;;15.05;6.55;;;11.80;99.90;;;;;;4870555;29;20131;-87
2022/05/22 06:22:07;;;;;;;14.33;7.17;;;11.90;99.90;;;;;;4890502;29;20362;-86
2022/05/22 06:24:36;;;;;;;14.13;6.05;;;12.00;99.90;;;;;;4895531;29;20398;-87
2022/05/22 06:27:02;;;;;;;13.10;6.35;;;12.10;99.90;;;;;;4891875;29;20083;-87
2022/05/22 06:29:28;;;;;;;12.88;6.47;;;12.30;99.90;;;;;;4886623;29;20412;-87
2022/05/22 06:31:54;;;;;;;12.43;5.97;;;12.40;99.90;;;;;;4899491;29;20051;-86
2022/05/22 06:34:22;;;;;;;14.95;6.70;;;12.50;99.90;;;;;;4901530;29;20044;-87
2022/05/22 06:36:49;;;;;;;13.73;6.20;;;12.70;99.90;;;;;;4877438;29;20048;-87
2022/05/22 06:41:59;;;;;;;16.90;6.10;;;13.10;99.90;;;;;;4903147;29;20083;-88
2022/05/22 06:44:25;;;;;;;10.00;5.82;;;13.40;99.90;;;;;;4873783;29;20076;-86
2022/05/22 06:46:50;;;;;;;10.15;5.45;;;13.60;99.90;;;;;;4904073;29;20491;-86
2022/05/22 06:49:16;;;;;;;17.00;5.80;;;13.90;99.90;;;;;;4885571;29;20048;-85
2022/05/22 06:51:42;;;;;;;13.07;5.05;;;14.20;99.90;;;;;;4868934;29;20044;-86
2022/05/22 06:54:07;;;;;;;12.70;5.45;;;14.40;99.90;;;;;;4887008;29;20044;-86
2022/05/22 06:56:33;;;;;;;13.35;5.05;;;14.70;99.90;;;;;;4902862;29;20092;-87
2022/05/22 06:58:59;;;;;;;8.50;4.55;;;14.90;99.90;;;;;;4902991;29;20114;-86
2022/05/22 07:01:26;;;;;;;13.73;5.32;;;15.10;99.90;;;;;;4889008;29;20503;-87
2022/05/22 07:03:52;;;;;;;9.35;4.70;;;15.30;99.90;;;;;;4878694;29;20093;-87
2022/05/22 07:06:18;;;;;;;11.73;4.35;;;15.40;99.90;;;;;;4899710;29;20076;-86
2022/05/22 07:08:43;;;;;;;10.77;4.70;;;15.60;99.90;;;;;;4896203;29;20052;-86
2022/05/22 07:13:54;;;;;;;13.75;4.68;;;15.90;99.90;;;;;;4902552;29;20381;-86
2022/05/22 07:16:19;;;;;;;11.68;4.20;;;16.00;99.90;;;;;;4887985;29;20046;-86
2022/05/22 07:18:45;;;;;;;13.35;3.97;;;16.20;99.90;;;;;;4901994;29;20044;-86
2022/05/22 07:21:11;;;;;;;11.73;4.22;;;16.40;99.90;;;;;;4885483;29;20059;-86
2022/05/22 07:23:37;;;;;;;11.27;3.80;;;16.60;99.90;;;;;;4886335;29;20044;-85
2022/05/22 07:26:05;;;;;;;11.85;3.80;;;17.00;99.90;;;;;;4886576;29;20048;-86
2022/05/22 07:28:31;;;;;;;11.93;4.15;;;17.40;99.90;;;;;;4905803;29;20043;-85
2022/05/22 07:30:57;;;;;;;12.02;3.80;;;17.70;99.90;;;;;;4903387;29;20496;-84
2022/05/22 07:33:23;;;;;;;11.65;3.83;;;18.10;99.90;;;;;;4888550;29;20146;-84
2022/05/22 07:35:57;;;;;;;8.57;3.83;;;18.30;99.90;;;;;;4901338;29;20044;-84
2022/05/22 07:38:25;;;;;;;12.10;4.03;;;18.50;99.90;;;;;;4880166;29;20068;-85
2022/05/22 07:40:52;;;;;;;8.25;3.13;;;18.60;99.90;;;;;;4901262;29;20048;-84
2022/05/22 07:43:18;;;;;;;12.25;3.92;;;18.70;99.90;;;;;;4885751;29;20063;-83
2022/05/22 07:45:44;;;;;;;9.43;3.47;;;18.80;99.90;;;;;;4902183;29;20045;-83
2022/05/22 07:48:10;;;;;;;10.38;2.67;;;19.00;99.90;;;;;;4910829;29;20043;-83
2022/05/22 07:50:35;;;;;;;10.52;3.33;;;18.90;99.90;;;;;;4901148;29;20048;-84
2022/05/22 07:53:02;;;;;;;10.02;3.50;;;18.90;99.90;;;;;;4895114;29;20087;-85
2022/05/22 07:55:27;;;;;;;10.43;3.20;;;18.90;99.90;;;;;;4901064;29;20405;-85
2022/05/22 07:57:53;;;;;;;9.80;3.33;;;19.00;99.90;;;;;;4885055;29;20044;-86
2022/05/22 08:00:21;;;;;;;7.82;3.20;;;19.20;99.90;;;;;;4884775;29;20398;-84
2022/05/22 08:02:47;;;;;;;9.50;2.97;;;19.30;99.90;;;;;;4901195;29;20066;-85
2022/05/22 08:05:15;;;;;;;7.90;3.10;;;19.40;99.90;;;;;;4882995;29;20397;-84
2022/05/22 08:07:41;;;;;;;12.55;3.33;;;19.60;99.90;;;;;;4887472;29;20036;-83
2022/05/22 08:10:10;;;;;;;7.78;2.50;;;19.60;99.90;;;;;;4886689;29;20051;-83
2022/05/22 08:12:45;;;;;;;10.52;3.33;;;19.70;99.90;;;;;;4867082;29;20400;-83
2022/05/22 08:15:14;;;;;;;9.25;2.67;;;19.70;99.90;;;;;;4867492;29;20059;-83
2022/05/22 08:17:39;;;;;;;7.82;2.80;;;19.80;99.90;;;;;;4901077;29;20059;-83
2022/05/22 08:20:12;;;;;;;7.43;2.40;;;19.90;99.90;;;;;;4885092;29;20044;-83
2022/05/22 08:22:40;;;;;;;9.85;2.50;;;20.00;99.90;;;;;;4900743;29;20047;-83
2022/05/22 08:25:07;;;;;;;8.77;2.50;;;19.90;99.90;;;;;;4902038;29;20098;-85
2022/05/22 08:27:34;;;;;;;8.40;2.75;;;20.00;99.90;;;;;;4885390;29;20083;-83
2022/05/22 08:30:00;;;;;;;7.22;2.60;;;20.10;99.90;;;;;;4900428;29;20580;-83
2022/05/22 08:32:25;;;;;;;7.75;2.33;;;20.00;99.90;;;;;;4900010;29;20140;-83
2022/05/22 08:34:52;;;;;;;8.95;2.75;;;20.10;99.90;;;;;;4870519;29;20040;-83
2022/05/22 08:37:18;;;;;;;10.23;2.70;;;20.10;99.90;;;;;;4892374;29;20697;-83
2022/05/22 08:39:44;;;;;;;9.35;2.35;;;20.10;99.90;;;;;;4869899;29;20044;-84
2022/05/22 08:42:16;;;;;;;9.10;2.53;;;20.10;99.90;;;;;;4885091;29;20831;-84
2022/05/22 08:44:44;;;;;;;12.38;2.90;;;20.10;99.90;;;;;;4901246;29;20051;-84
2022/05/22 08:47:43;;;;;;;6.80;2.30;;;20.10;99.90;;;;;;4900418;29;20054;-84
2022/05/22 08:50:11;;;;;;;7.47;2.42;;;20.20;99.70;;;;;;4862054;29;20138;-83
2022/05/22 08:52:49;;;;;;;7.20;2.30;;;20.20;99.90;;;;;;4884963;29;20085;-83
2022/05/22 08:55:20;;;;;;;7.80;2.40;;;20.20;99.90;;;;;;4904148;29;20044;-85
2022/05/22 09:00:39;;;;;;;6.47;2.00;;;20.50;99.50;;;;;;4904679;29;20104;-85
2022/05/22 09:03:24;;;;;;;7.55;1.80;;;20.50;97.90;;;;;;4889083;29;20051;-84
2022/05/22 09:05:56;;;;;;;6.15;1.85;;;20.50;96.30;;;;;;4901842;29;20043;-85
2022/05/22 09:08:37;;;;;;;6.35;2.08;;;20.50;97.10;;;;;;4889750;29;20129;-85
2022/05/22 09:11:09;;;;;;;6.15;1.83;;;20.60;97.20;;;;;;4904830;29;20437;-86
2022/05/22 09:13:40;;;;;;;7.97;2.20;;;20.60;96.40;;;;;;4891686;29;20176;-85
2022/05/22 09:16:30;;;;;;;9.77;3.15;;;20.60;96.70;;;;;;4907715;29;20103;-83
2022/05/22 09:19:10;;;;;;;6.05;2.33;;;20.60;95.90;;;;;;4908622;29;20080;-84
2022/05/22 09:21:48;;;;;;;11.93;2.40;;;20.50;96.60;;;;;;4919917;29;20064;-83
2022/05/22 09:24:31;;;;;;;7.18;2.53;;;20.60;96.80;;;;;;4911209;29;20077;-82
2022/05/22 09:27:30;;;;;;;6.55;2.42;;;20.60;96.80;;;;;;4911870;29;20075;-84
2022/05/22 09:30:17;;;;;;;7.57;2.17;;;20.50;97.20;;;;;;4898604;29;20044;-82
2022/05/22 09:33:06;;;;;;;8.30;2.40;;;20.40;95.60;;;;;;4885701;29;20051;-82
2022/05/22 09:35:49;;;;;;;11.88;3.00;;;20.50;97.10;;;;;;4882027;29;20122;-84
2022/05/22 09:38:17;;;;;;;10.20;2.50;;;20.60;96.10;;;;;;4886600;29;20049;-83
2022/05/22 09:40:57;;;;;;;6.53;2.00;;;20.50;95.80;;;;;;4888022;29;20055;-84
2022/05/22 09:43:31;;;;;;;6.50;1.85;;;20.50;96.50;;;;;;4890283;29;20505;-83
2022/05/22 09:46:26;;;;;;;7.15;1.60;;;20.50;97.00;;;;;;4888593;29;20052;-84
2022/05/22 09:48:54;;;;;;;7.93;2.03;;;20.40;96.60;;;;;;4903985;29;20104;-83
2022/05/22 09:51:35;;;;;;;6.40;2.38;;;20.40;96.20;;;;;;4904907;29;20095;-83
2022/05/22 09:54:12;;;;;;;8.23;2.55;;;20.30;95.50;;;;;;4900878;29;20048;-82
2022/05/22 09:57:20;;;;;;;9.20;2.17;;;20.20;95.40;;;;;;4905488;29;20052;-83
2022/05/22 10:00:29;;;;;;;5.88;2.03;;;20.30;94.30;;;;;;4915830;29;20055;-84
2022/05/22 10:03:30;;;;;;;6.60;2.20;;;20.20;95.60;;;;;;4875489;29;20048;-84
2022/05/22 10:06:21;;;;;;;6.72;2.20;;;20.20;95.50;;;;;;4842278;29;20045;-84
2022/05/22 10:09:06;;;;;;;8.55;1.90;;;20.20;95.70;;;;;;4869690;29;20513;-83
2022/05/22 10:12:13;;;;;;;7.95;2.17;;;20.10;96.70;;;;;;4889214;29;20518;-82
2022/05/22 10:14:39;;;;;;;7.97;2.05;;;20.10;94.30;;;;;;4833203;29;20089;-85
2022/05/22 10:17:29;;;;;;;6.43;1.60;;;20.10;95.50;;;;;;4885276;29;20129;-85
2022/05/22 10:20:21;;;;;;;6.22;1.92;;;20.20;94.50;;;;;;4903220;29;20392;-85
2022/05/22 10:23:18;;;;;;;6.57;1.52;;;20.20;92.80;;;;;;4902976;29;20122;-85
2022/05/22 10:26:12;;;;;;;4.72;1.70;;;20.10;90.60;;;;;;4854486;29;20056;-84
2022/05/22 10:28:47;;;;;;;6.00;1.67;;;20.00;91.10;;;;;;4903556;29;20484;-85
2022/05/22 10:31:20;;;;;;;7.05;1.40;;;19.90;92.60;;;;;;4888371;29;20074;-85
2022/05/22 10:34:12;;;;;;;7.20;1.70;;;19.90;91.50;;;;;;4903468;29;20044;-84
2022/05/22 10:36:48;;;;;;;5.22;1.55;;;19.80;91.70;;;;;;4902983;29;20055;-85
2022/05/22 10:39:14;;;;;;;5.97;1.65;;;19.80;90.90;;;;;;4898064;29;20385;-85
2022/05/22 10:44:43;;;;;;;5.57;1.58;;;19.80;91.20;;;;;;4897542;29;20048;-86
2022/05/22 10:47:08;;;;;;;7.75;2.03;;;19.70;91.30;;;;;;4887399;29;20461;-86
2022/05/22 10:49:42;;;;;;;5.13;1.50;;;19.70;91.00;;;;;;4887950;29;20126;-86
2022/05/22 10:52:11;;;;;;;6.93;1.58;;;19.70;90.40;;;;;;4902917;29;20516;-86
2022/05/22 10:55:04;;;;;;;4.30;1.20;;;19.70;90.10;;;;;;4902962;29;20250;-86
2022/05/22 10:57:32;;;;;;;6.38;1.90;;;19.70;90.40;;;;;;4899531;29;20092;-86
2022/05/22 11:00:09;;;;;;;8.05;2.10;;;19.70;90.20;;;;;;4856815;29;20068;-85
2022/05/22 11:02:34;;;;;;;8.35;1.98;;;19.70;90.50;;;;;;4887528;29;20505;-86
2022/05/22 11:05:00;;;;;;;4.65;1.60;;;19.70;90.10;;;;;;4887560;29;20076;-86
2022/05/22 11:07:43;;;;;;;5.38;2.13;;;19.70;91.20;;;;;;4887320;29;20123;-88
2022/05/22 11:10:16;;;;;;;5.35;1.67;;;19.70;92.10;;;;;;4887560;29;20051;-86
2022/05/22 11:12:42;;;;;;;7.32;2.05;;;19.70;91.80;;;;;;4885658;29;20044;-87
2022/05/22 11:15:10;;;;;;;6.32;1.80;;;19.70;93.20;;;;;;4868642;29;20096;-87
2022/05/22 11:17:36;;;;;;;5.18;1.70;;;19.90;93.30;;;;;;4884176;29;20044;-87
2022/05/22 11:20:15;;;;;;;6.15;1.63;;;19.40;92.40;;;;;;4885004;29;20101;-87
2022/05/22 11:22:58;;;;;;;6.80;1.80;;;20.00;91.90;;;;;;4902194;29;20079;-86
2022/05/22 11:25:35;;;;;;;6.80;1.70;;;20.00;91.80;;;;;;4887307;29;20060;-87
2022/05/22 11:28:38;;;;;;;8.32;2.03;;;20.10;91.80;;;;;;4887348;29;20492;-87
2022/05/22 11:31:46;;;;;;;6.55;1.83;;;20.20;92.40;;;;;;4903158;29;20044;-88
2022/05/22 11:34:49;;;;;;;5.43;1.90;;;20.30;93.40;;;;;;4889508;29;20048;-87
2022/05/22 11:37:23;;;;;;;7.45;2.10;;;20.50;92.20;;;;;;4886594;29;20044;-86
2022/05/22 11:40:28;;;;;;;7.20;1.80;;;20.50;90.80;;;;;;4886834;29;20083;-86
2022/05/22 11:43:25;;;;;;;6.03;1.67;;;20.40;90.80;;;;;;4902941;29;20143;-86
2022/05/22 11:46:08;;;;;;;4.88;1.40;;;20.20;91.10;;;;;;4887250;29;20040;-86
2022/05/22 11:48:43;;;;;;;4.53;1.55;;;20.10;92.00;;;;;;4887992;29;20044;-86
2022/05/22 11:51:18;;;;;;;4.45;1.58;;;20.00;92.40;;;;;;4887162;29;20043;-86
2022/05/22 11:54:45;;;;;;;5.80;1.70;;;20.10;92.90;;;;;;4903319;29;20146;-86
2022/05/22 11:57:21;;;;;;;4.40;1.63;;;20.20;92.30;;;;;;4813339;29;20050;-86
2022/05/22 12:00:12;;;;;;;6.57;1.60;;;20.40;91.80;;;;;;4891596;29;20111;-86
2022/05/22 12:03:07;;;;;;;5.13;1.70;;;20.60;90.70;;;;;;4888125;29;20079;-86
2022/05/22 12:05:54;;;;;;;4.55;1.67;;;20.70;89.20;;;;;;4902945;29;20469;-86
2022/05/22 12:08:44;;;;;;;5.55;1.63;;;20.60;87.80;;;;;;4888847;29;20083;-87
2022/05/22 12:11:18;;;;;;;5.85;1.67;;;20.60;88.20;;;;;;4903966;29;20040;-86
2022/05/22 12:14:19;;;;;;;5.68;1.67;;;20.50;90.10;;;;;;4887876;29;20068;-85
2022/05/22 12:17:14;;;;;;;3.78;1.63;;;20.60;89.70;;;;;;4884872;29;20052;-87
2022/05/22 12:20:21;;;;;;;4.18;1.52;;;20.70;89.90;;;;;;4857281;29;20421;-86
2022/05/22 12:23:32;;;;;;;5.60;1.80;;;20.90;88.20;;;;;;4901439;29;20063;-86
2022/05/22 12:26:00;;;;;;;6.32;1.75;;;21.10;87.20;;;;;;4887443;29;20040;-86
2022/05/22 12:28:38;;;;;;;5.22;1.40;;;21.20;86.80;;;;;;4886736;29;20055;-85
2022/05/22 12:31:13;;;;;;;4.60;1.30;;;21.50;87.60;;;;;;4887141;29;20079;-86
2022/05/22 12:33:39;;;;;;;6.88;1.67;;;21.70;87.10;;;;;;4903461;29;20048;-86
2022/05/22 12:36:07;;;;;;;6.43;2.00;;;22.00;85.80;;;;;;4887506;29;20512;-86
2022/05/22 12:38:41;;;;;;;5.15;1.65;;;22.20;84.20;;;;;;4901734;29;20050;-86
2022/05/22 12:41:49;;;;;;;5.63;1.58;;;22.20;84.90;;;;;;4902078;29;20040;-86
2022/05/22 12:44:15;;;;;;;4.40;1.65;;;22.30;83.50;;;;;;4885334;29;20052;-86
2022/05/22 12:46:41;;;;;;;3.97;1.23;;;22.60;87.40;;;;;;4886031;29;20051;-87
2022/05/22 12:49:08;;;;;;;5.43;1.38;;;22.80;84.60;;;;;;4885527;29;20519;-87
2022/05/22 12:51:38;;;;;;;5.47;1.60;;;23.00;81.20;;;;;;4901639;29;20515;-87
2022/05/22 12:54:11;;;;;;;5.63;1.63;;;23.00;77.50;;;;;;4901354;29;20131;-87
2022/05/22 12:56:39;;;;;;;4.15;1.30;;;22.80;77.20;;;;;;4889952;29;20053;-86
2022/05/22 12:59:25;;;;;;;5.00;1.48;;;22.60;76.60;;;;;;4882891;29;20135;-87
2022/05/22 13:01:58;;;;;;;3.47;1.50;;;22.40;76.90;;;;;;4901779;29;20044;-87
2022/05/22 13:04:31;;;;;;;5.30;1.65;;;22.50;79.50;;;;;;4901718;29;20390;-86
2022/05/22 13:07:13;;;;;;;4.88;1.58;;;22.50;77.40;;;;;;4887124;29;20100;-87
2022/05/22 13:09:41;;;;;;;6.00;1.73;;;22.30;79.50;;;;;;4865825;29;20077;-86
2022/05/22 13:12:13;;;;;;;5.88;1.50;;;22.10;78.80;;;;;;4867073;29;20055;-87
2022/05/22 13:14:50;;;;;;;4.07;1.70;;;22.00;79.00;;;;;;4883115;29;20102;-87
2022/05/22 13:17:29;;;;;;;4.63;1.50;;;22.00;80.30;;;;;;4883409;29;20053;-87
2022/05/22 13:19:57;;;;;;;4.72;1.83;;;22.30;79.90;;;;;;4885666;29;20051;-86
2022/05/22 13:22:36;;;;;;;7.10;1.63;;;22.50;80.80;;;;;;4885671;29;20046;-86
2022/05/22 13:25:05;;;;;;;5.55;1.42;;;22.90;79.10;;;;;;4870251;29;20129;-86
2022/05/22 13:27:31;;;;;;;6.05;1.73;;;23.20;78.40;;;;;;4884351;29;20044;-87
2022/05/22 13:30:13;;;;;;;4.93;1.50;;;23.30;78.60;;;;;;4866953;29;20113;-87
2022/05/22 13:32:47;;;;;;;6.72;1.88;;;23.30;78.00;;;;;;4867866;29;20052;-87